Wetterdaten: Woche 29.07.13 - 04.08.13 (KW31)
Datum Zeit Temperatur Luftfeuchte Luftdruck Niederschlag Windrichtung Sonnenschein Solar Wind
29.07.2013 00:00 17,1 C 82 % 1012,4 hPa 0,0 l/m N 0,00 h 0 W/m 0,5 km/h (0 Bft)
29.07.2013 01:00 16,6 C 84 % 1012,2 hPa 0,0 l/m N 0,00 h 0 W/m 1,3 km/h (1 Bft)
29.07.2013 02:00 17,2 C 81 % 1012,5 hPa 0,0 l/m NW 0,00 h 0 W/m 7,2 km/h (2 Bft)
29.07.2013 03:00 17,7 C 79 % 1013,5 hPa 0,0 l/m W-NW 0,00 h 0 W/m 10,9 km/h (2 Bft)
29.07.2013 04:00 17,4 C 83 % 1013,5 hPa 0,0 l/m SW 0,00 h 0 W/m 3,6 km/h (1 Bft)
29.07.2013 05:00 16,4 C 92 % 1013,8 hPa 1,0 l/m SW 0,00 h 0 W/m 3,9 km/h (1 Bft)
29.07.2013 06:00 16,2 C 95 % 1013,7 hPa 0,8 l/m W 0,00 h 8 W/m 5,2 km/h (1 Bft)
29.07.2013 07:00 16,3 C 97 % 1013,1 hPa 0,2 l/m N 0,00 h 39 W/m 1,6 km/h (1 Bft)
29.07.2013 08:00 16,6 C 97 % 1012,9 hPa 0,0 l/m N 0,00 h 37 W/m 0,9 km/h (0 Bft)
29.07.2013 09:00 17,0 C 96 % 1012,6 hPa 0,0 l/m N 0,00 h 46 W/m 2,4 km/h (1 Bft)
29.07.2013 10:00 17,2 C 95 % 1012,8 hPa 0,8 l/m SW 0,00 h 30 W/m 4,0 km/h (1 Bft)
29.07.2013 11:00 16,9 C 96 % 1012,6 hPa 1,0 l/m N 0,00 h 56 W/m 1,5 km/h (1 Bft)
29.07.2013 12:00 16,8 C 96 % 1012,3 hPa 3,0 l/m W 0,00 h 67 W/m 3,2 km/h (1 Bft)
29.07.2013 13:00 17,1 C 96 % 1011,8 hPa 1,0 l/m W 0,00 h 127 W/m 3,6 km/h (1 Bft)
29.07.2013 14:00 16,9 C 95 % 1011,8 hPa 0,0 l/m W 0,00 h 76 W/m 6,7 km/h (2 Bft)
29.07.2013 15:00 16,6 C 95 % 1012,5 hPa 0,0 l/m W-NW 0,00 h 77 W/m 10,7 km/h (2 Bft)
29.07.2013 16:00 16,1 C 95 % 1013,4 hPa 1,4 l/m W-SW 0,00 h 68 W/m 17,3 km/h (3 Bft)
29.07.2013 17:00 15,6 C 95 % 1014,9 hPa 0,8 l/m W-NW 0,00 h 64 W/m 18,8 km/h (3 Bft)
29.07.2013 18:00 15,6 C 95 % 1016,7 hPa 0,4 l/m W 0,00 h 69 W/m 18,1 km/h (3 Bft)
29.07.2013 19:00 15,2 C 95 % 1017,6 hPa 0,0 l/m W-SW 0,00 h 42 W/m 17,0 km/h (3 Bft)
29.07.2013 20:00 14,7 C 96 % 1017,9 hPa 0,2 l/m W-SW 0,00 h 11 W/m 18,4 km/h (3 Bft)
29.07.2013 21:00 14,6 C 95 % 1018,5 hPa 0,0 l/m W-SW 0,00 h 5 W/m 21,6 km/h (4 Bft)
29.07.2013 22:00 13,8 C 96 % 1018,8 hPa 0,0 l/m SW 0,00 h 0 W/m 10,2 km/h (2 Bft)
29.07.2013 23:00 13,3 C 98 % 1019,5 hPa 0,0 l/m S-SW 0,00 h 0 W/m 8,8 km/h (2 Bft)
30.07.2013 00:00 13,0 C 98 % 1020,0 hPa 0,0 l/m SW 0,00 h 0 W/m 7,9 km/h (2 Bft)
30.07.2013 01:00 13,1 C 98 % 1020,2 hPa 0,0 l/m SW 0,00 h 0 W/m 6,4 km/h (2 Bft)
30.07.2013 02:00 13,2 C 97 % 1020,3 hPa 0,0 l/m SW 0,00 h 0 W/m 3,7 km/h (1 Bft)
30.07.2013 03:00 13,7 C 97 % 1020,4 hPa 0,0 l/m SW 0,00 h 0 W/m 9,1 km/h (2 Bft)
30.07.2013 04:00 13,9 C 97 % 1020,2 hPa 0,0 l/m SW 0,00 h 0 W/m 12,4 km/h (3 Bft)
30.07.2013 05:00 13,7 C 97 % 1020,1 hPa 0,0 l/m SW 0,00 h 0 W/m 11,1 km/h (2 Bft)
30.07.2013 06:00 13,5 C 97 % 1020,4 hPa 0,0 l/m N 0,00 h 21 W/m 3,2 km/h (1 Bft)
30.07.2013 07:00 14,4 C 97 % 1020,7 hPa 0,0 l/m SW 0,25 h 115 W/m 9,7 km/h (2 Bft)
30.07.2013 08:00 15,6 C 95 % 1020,9 hPa 0,0 l/m SW 0,42 h 227 W/m 16,9 km/h (3 Bft)
30.07.2013 09:00 17,0 C 89 % 1021,0 hPa 0,0 l/m SW 0,83 h 469 W/m 20,0 km/h (4 Bft)
30.07.2013 10:00 18,4 C 82 % 1020,9 hPa 0,0 l/m W-SW 0,75 h 598 W/m 16,6 km/h (3 Bft)
30.07.2013 11:00 19,6 C 74 % 1020,6 hPa 0,0 l/m W 0,50 h 480 W/m 18,2 km/h (3 Bft)
30.07.2013 12:00 20,6 C 69 % 1020,2 hPa 0,0 l/m W-NW 0,83 h 848 W/m 20,9 km/h (4 Bft)
30.07.2013 13:00 21,3 C 64 % 1019,9 hPa 0,0 l/m W-SW 0,67 h 652 W/m 22,7 km/h (4 Bft)
30.07.2013 14:00 22,6 C 58 % 1019,6 hPa 0,0 l/m W 0,92 h 840 W/m 27,5 km/h (4 Bft)
30.07.2013 15:00 23,1 C 56 % 1019,2 hPa 0,0 l/m W-SW 0,75 h 694 W/m 24,5 km/h (4 Bft)
30.07.2013 16:00 23,4 C 54 % 1018,9 hPa 0,0 l/m W-SW 0,50 h 459 W/m 24,5 km/h (4 Bft)
30.07.2013 17:00 22,3 C 57 % 1018,7 hPa 0,0 l/m W-NW 0,00 h 127 W/m 17,4 km/h (3 Bft)
30.07.2013 18:00 21,6 C 60 % 1018,4 hPa 0,0 l/m W 0,17 h 134 W/m 10,5 km/h (2 Bft)
30.07.2013 19:00 21,2 C 63 % 1018,4 hPa 0,0 l/m W-SW 0,33 h 99 W/m 12,4 km/h (3 Bft)
30.07.2013 20:00 20,1 C 67 % 1018,5 hPa 0,0 l/m W-SW 0,17 h 24 W/m 9,9 km/h (2 Bft)
30.07.2013 21:00 18,6 C 72 % 1018,9 hPa 0,0 l/m W-SW 0,00 h 0 W/m 8,3 km/h (2 Bft)
30.07.2013 22:00 18,0 C 74 % 1019,2 hPa 0,0 l/m W-SW 0,00 h 0 W/m 9,4 km/h (2 Bft)
30.07.2013 23:00 16,8 C 79 % 1019,3 hPa 0,0 l/m W-SW 0,00 h 0 W/m 4,5 km/h (1 Bft)
31.07.2013 00:00 16,3 C 81 % 1019,3 hPa 0,0 l/m W-SW 0,00 h 0 W/m 9,8 km/h (2 Bft)
31.07.2013 01:00 16,4 C 80 % 1019,2 hPa 0,0 l/m W-SW 0,00 h 0 W/m 9,7 km/h (2 Bft)
31.07.2013 02:00 16,2 C 82 % 1019,3 hPa 0,0 l/m SW 0,00 h 0 W/m 10,9 km/h (2 Bft)
31.07.2013 03:00 15,1 C 87 % 1019,3 hPa 0,0 l/m SW 0,00 h 0 W/m 7,8 km/h (2 Bft)
31.07.2013 04:00 14,3 C 91 % 1019,1 hPa 0,0 l/m SW 0,00 h 0 W/m 7,9 km/h (2 Bft)
31.07.2013 05:00 14,8 C 92 % 1019,1 hPa 0,0 l/m SW 0,00 h 0 W/m 8,7 km/h (2 Bft)
31.07.2013 06:00 15,9 C 88 % 1019,0 hPa 0,0 l/m SW 0,00 h 13 W/m 10,8 km/h (2 Bft)
31.07.2013 07:00 17,0 C 84 % 1019,2 hPa 0,0 l/m SW 0,00 h 44 W/m 14,1 km/h (3 Bft)
31.07.2013 08:00 18,3 C 80 % 1019,1 hPa 0,0 l/m W-SW 0,33 h 211 W/m 18,1 km/h (3 Bft)
31.07.2013 09:00 19,7 C 75 % 1019,2 hPa 0,0 l/m W-SW 0,75 h 434 W/m 19,4 km/h (3 Bft)
31.07.2013 10:00 21,2 C 69 % 1019,1 hPa 0,0 l/m W-NW 1,00 h 676 W/m 20,5 km/h (4 Bft)
31.07.2013 11:00 22,2 C 66 % 1018,9 hPa 0,0 l/m W-SW 0,42 h 440 W/m 22,5 km/h (4 Bft)
31.07.2013 12:00 22,5 C 62 % 1018,9 hPa 0,0 l/m W 0,08 h 358 W/m 18,6 km/h (3 Bft)
31.07.2013 13:00 23,7 C 60 % 1018,5 hPa 0,0 l/m SW 0,42 h 563 W/m 14,6 km/h (3 Bft)
31.07.2013 14:00 24,6 C 57 % 1018,1 hPa 0,0 l/m W 0,58 h 663 W/m 14,6 km/h (3 Bft)
31.07.2013 15:00 25,6 C 54 % 1017,8 hPa 0,0 l/m W 0,92 h 771 W/m 13,0 km/h (3 Bft)
31.07.2013 16:00 26,8 C 51 % 1017,4 hPa 0,0 l/m SW 1,00 h 696 W/m 13,4 km/h (3 Bft)
31.07.2013 17:00 27,1 C 48 % 1017,1 hPa 0,0 l/m W-SW 0,92 h 551 W/m 8,5 km/h (2 Bft)
31.07.2013 18:00 26,0 C 50 % 1016,8 hPa 0,0 l/m W-SW 0,75 h 291 W/m 4,0 km/h (1 Bft)
31.07.2013 19:00 24,7 C 58 % 1016,6 hPa 0,0 l/m SW 0,42 h 101 W/m 1,7 km/h (1 Bft)
31.07.2013 20:00 21,6 C 75 % 1016,6 hPa 0,0 l/m N 0,00 h 17 W/m 0,0 km/h (0 Bft)
31.07.2013 21:00 19,8 C 78 % 1017,1 hPa 0,0 l/m N-NW 0,00 h 0 W/m 3,5 km/h (1 Bft)
31.07.2013 22:00 18,8 C 79 % 1017,4 hPa 0,0 l/m N 0,00 h 0 W/m 1,1 km/h (0 Bft)
31.07.2013 23:00 17,6 C 83 % 1017,6 hPa 0,0 l/m N 0,00 h 0 W/m 0,3 km/h (0 Bft)
01.08.2013 00:00 16,9 C 85 % 1017,6 hPa 0,0 l/m N 0,00 h 0 W/m 1,1 km/h (0 Bft)
01.08.2013 01:00 16,5 C 87 % 1017,2 hPa 0,0 l/m N 0,00 h 0 W/m 1,6 km/h (1 Bft)
01.08.2013 02:00 16,2 C 88 % 1017,0 hPa 0,0 l/m N-NW 0,00 h 0 W/m 4,1 km/h (1 Bft)
01.08.2013 03:00 15,7 C 90 % 1016,6 hPa 0,0 l/m N 0,00 h 0 W/m 2,3 km/h (1 Bft)
01.08.2013 04:00 15,1 C 92 % 1016,3 hPa 0,0 l/m N 0,00 h 0 W/m 3,1 km/h (1 Bft)
01.08.2013 05:00 14,5 C 94 % 1016,0 hPa 0,0 l/m N 0,00 h 0 W/m 1,9 km/h (1 Bft)
01.08.2013 06:00 14,2 C 95 % 1016,1 hPa 0,0 l/m N-NW 0,00 h 21 W/m 3,7 km/h (1 Bft)
01.08.2013 07:00 15,6 C 92 % 1016,0 hPa 0,0 l/m N-NW 0,58 h 141 W/m 4,3 km/h (1 Bft)
01.08.2013 08:00 18,1 C 84 % 1016,2 hPa 0,0 l/m N-NW 1,00 h 319 W/m 4,7 km/h (1 Bft)
01.08.2013 09:00 20,6 C 75 % 1016,0 hPa 0,0 l/m N 1,00 h 490 W/m 2,7 km/h (1 Bft)
01.08.2013 10:00 23,2 C 63 % 1015,7 hPa 0,0 l/m N-NW 1,00 h 646 W/m 4,9 km/h (1 Bft)
01.08.2013 11:00 25,0 C 57 % 1015,4 hPa 0,0 l/m O-NO 1,00 h 769 W/m 5,3 km/h (1 Bft)
01.08.2013 12:00 27,1 C 49 % 1014,9 hPa 0,0 l/m O-SO 1,00 h 852 W/m 8,3 km/h (2 Bft)
01.08.2013 13:00 28,8 C 41 % 1014,5 hPa 0,0 l/m SO 1,00 h 888 W/m 7,0 km/h (2 Bft)
01.08.2013 14:00 30,3 C 33 % 1013,9 hPa 0,0 l/m S 1,00 h 870 W/m 8,0 km/h (2 Bft)
01.08.2013 15:00 31,3 C 31 % 1013,5 hPa 0,0 l/m W 1,00 h 803 W/m 7,4 km/h (2 Bft)
01.08.2013 16:00 32,0 C 29 % 1013,1 hPa 0,0 l/m SW 1,00 h 703 W/m 8,7 km/h (2 Bft)
01.08.2013 17:00 32,0 C 27 % 1012,8 hPa 0,0 l/m SW 1,00 h 564 W/m 9,9 km/h (2 Bft)
01.08.2013 18:00 31,3 C 28 % 1012,5 hPa 0,0 l/m SW 1,00 h 401 W/m 8,3 km/h (2 Bft)
01.08.2013 19:00 28,9 C 37 % 1012,4 hPa 0,0 l/m N 1,00 h 204 W/m 1,6 km/h (1 Bft)
01.08.2013 20:00 23,8 C 58 % 1012,4 hPa 0,0 l/m N 0,25 h 19 W/m 0,0 km/h (0 Bft)
01.08.2013 21:00 20,8 C 61 % 1012,9 hPa 0,0 l/m N 0,00 h 0 W/m 0,0 km/h (0 Bft)
01.08.2013 22:00 19,4 C 67 % 1013,3 hPa 0,0 l/m N 0,00 h 0 W/m 0,0 km/h (0 Bft)
01.08.2013 23:00 18,2 C 74 % 1013,6 hPa 0,0 l/m N 0,00 h 0 W/m 0,0 km/h (0 Bft)
02.08.2013 00:00 17,1 C 77 % 1013,7 hPa 0,0 l/m N 0,00 h 0 W/m 0,5 km/h (0 Bft)
02.08.2013 01:00 16,1 C 81 % 1014,0 hPa 0,0 l/m N 0,00 h 0 W/m 0,0 km/h (0 Bft)
02.08.2013 02:00 15,4 C 84 % 1014,0 hPa 0,0 l/m N 0,00 h 0 W/m 0,0 km/h (0 Bft)
02.08.2013 03:00 14,9 C 88 % 1014,0 hPa 0,0 l/m N 0,00 h 0 W/m 0,1 km/h (0 Bft)
02.08.2013 04:00 14,5 C 90 % 1013,8 hPa 0,0 l/m N 0,00 h 0 W/m 0,0 km/h (0 Bft)
02.08.2013 05:00 13,9 C 92 % 1014,0 hPa 0,0 l/m N 0,00 h 0 W/m 0,0 km/h (0 Bft)
02.08.2013 06:00 14,0 C 93 % 1014,4 hPa 0,0 l/m N 0,00 h 18 W/m 0,0 km/h (0 Bft)
02.08.2013 07:00 15,8 C 88 % 1014,5 hPa 0,0 l/m N 0,50 h 131 W/m 0,0 km/h (0 Bft)
02.08.2013 08:00 19,4 C 79 % 1014,4 hPa 0,0 l/m N 1,00 h 306 W/m 2,3 km/h (1 Bft)
02.08.2013 09:00 23,3 C 65 % 1014,4 hPa 0,0 l/m S-SW 1,00 h 474 W/m 6,4 km/h (2 Bft)
02.08.2013 10:00 26,3 C 57 % 1014,1 hPa 0,0 l/m S 1,00 h 629 W/m 6,4 km/h (2 Bft)
02.08.2013 11:00 28,0 C 52 % 1013,9 hPa 0,0 l/m S 1,00 h 755 W/m 6,5 km/h (2 Bft)
02.08.2013 12:00 30,2 C 41 % 1013,6 hPa 0,0 l/m S-SO 1,00 h 840 W/m 8,7 km/h (2 Bft)
02.08.2013 13:00 31,6 C 39 % 1013,0 hPa 0,0 l/m SW 1,00 h 871 W/m 9,7 km/h (2 Bft)
02.08.2013 14:00 32,7 C 35 % 1012,4 hPa 0,0 l/m SW 1,00 h 855 W/m 11,9 km/h (2 Bft)
02.08.2013 15:00 33,7 C 29 % 1012,2 hPa 0,0 l/m SW 1,00 h 798 W/m 13,8 km/h (3 Bft)
02.08.2013 16:00 34,0 C 28 % 1012,2 hPa 0,0 l/m SW 1,00 h 692 W/m 14,1 km/h (3 Bft)
02.08.2013 17:00 33,8 C 26 % 1011,8 hPa 0,0 l/m W-SW 1,00 h 554 W/m 12,9 km/h (3 Bft)
02.08.2013 18:00 32,7 C 30 % 1011,6 hPa 0,0 l/m W-SW 1,00 h 377 W/m 11,2 km/h (2 Bft)
02.08.2013 19:00 30,0 C 41 % 1011,5 hPa 0,0 l/m W-SW 0,75 h 157 W/m 3,1 km/h (1 Bft)
02.08.2013 20:00 25,4 C 63 % 1011,8 hPa 0,0 l/m N 0,00 h 20 W/m 0,0 km/h (0 Bft)
02.08.2013 21:00 22,8 C 68 % 1012,2 hPa 0,0 l/m N 0,00 h 0 W/m 0,3 km/h (0 Bft)
02.08.2013 22:00 21,4 C 73 % 1012,5 hPa 0,0 l/m N 0,00 h 0 W/m 0,0 km/h (0 Bft)
02.08.2013 23:00 20,1 C 78 % 1012,5 hPa 0,0 l/m N 0,00 h 0 W/m 0,0 km/h (0 Bft)
03.08.2013 00:00 19,3 C 81 % 1012,5 hPa 0,0 l/m N 0,00 h 0 W/m 0,0 km/h (0 Bft)
03.08.2013 01:00 18,4 C 85 % 1012,2 hPa 0,0 l/m N 0,00 h 0 W/m 0,0 km/h (0 Bft)
03.08.2013 02:00 18,1 C 87 % 1012,0 hPa 0,0 l/m N 0,00 h 0 W/m 0,9 km/h (0 Bft)
03.08.2013 03:00 17,6 C 88 % 1011,5 hPa 0,0 l/m N 0,00 h 0 W/m 0,0 km/h (0 Bft)
03.08.2013 04:00 16,9 C 90 % 1012,0 hPa 0,0 l/m W-SW 0,00 h 0 W/m 0,5 km/h (0 Bft)
03.08.2013 05:00 18,2 C 80 % 1013,3 hPa 0,0 l/m N 0,00 h 0 W/m 1,2 km/h (1 Bft)
03.08.2013 06:00 16,6 C 87 % 1014,3 hPa 0,0 l/m N 0,00 h 20 W/m 0,8 km/h (0 Bft)
03.08.2013 07:00 17,8 C 86 % 1015,2 hPa 0,0 l/m W-SW 0,17 h 90 W/m 3,1 km/h (1 Bft)
03.08.2013 08:00 20,4 C 80 % 1015,9 hPa 0,0 l/m S-SW 0,08 h 150 W/m 5,5 km/h (1 Bft)
03.08.2013 09:00 23,1 C 68 % 1016,5 hPa 0,0 l/m NW 0,42 h 271 W/m 11,0 km/h (2 Bft)
03.08.2013 10:00 25,0 C 59 % 1016,3 hPa 0,0 l/m NO 1,00 h 613 W/m 8,4 km/h (2 Bft)
03.08.2013 11:00 26,3 C 56 % 1016,0 hPa 0,0 l/m N-NO 0,33 h 392 W/m 11,2 km/h (2 Bft)
03.08.2013 12:00 27,2 C 52 % 1015,7 hPa 0,0 l/m N-NO 0,58 h 609 W/m 12,6 km/h (3 Bft)
03.08.2013 13:00 28,3 C 48 % 1015,3 hPa 0,0 l/m O-NO 1,00 h 809 W/m 14,5 km/h (3 Bft)
03.08.2013 14:00 29,5 C 42 % 1015,1 hPa 0,0 l/m O 1,00 h 789 W/m 14,4 km/h (3 Bft)
03.08.2013 15:00 30,2 C 40 % 1014,7 hPa 0,0 l/m O-NO 1,00 h 727 W/m 12,4 km/h (3 Bft)
03.08.2013 16:00 29,8 C 43 % 1014,7 hPa 0,0 l/m NO 0,58 h 421 W/m 12,5 km/h (3 Bft)
03.08.2013 17:00 29,3 C 45 % 1014,7 hPa 0,0 l/m W-NW 0,58 h 374 W/m 7,0 km/h (2 Bft)
03.08.2013 18:00 29,3 C 46 % 1015,0 hPa 0,0 l/m N-NO 0,33 h 158 W/m 4,8 km/h (1 Bft)
03.08.2013 19:00 26,7 C 57 % 1015,8 hPa 0,0 l/m N-NO 0,00 h 27 W/m 7,1 km/h (2 Bft)
03.08.2013 20:00 25,1 C 65 % 1016,1 hPa 0,0 l/m N-NW 0,00 h 11 W/m 2,4 km/h (1 Bft)
03.08.2013 21:00 24,6 C 66 % 1017,2 hPa 0,0 l/m NO 0,00 h 0 W/m 6,6 km/h (2 Bft)
03.08.2013 22:00 23,5 C 70 % 1017,0 hPa 0,0 l/m O-NO 0,00 h 0 W/m 4,4 km/h (1 Bft)
03.08.2013 23:00 21,7 C 76 % 1017,2 hPa 0,0 l/m NO 0,00 h 0 W/m 5,6 km/h (1 Bft)
04.08.2013 00:00 20,7 C 80 % 1017,3 hPa 0,0 l/m NO 0,00 h 0 W/m 3,2 km/h (1 Bft)
04.08.2013 01:00 19,6 C 84 % 1017,4 hPa 0,0 l/m NO 0,00 h 0 W/m 3,9 km/h (1 Bft)
04.08.2013 02:00 18,6 C 84 % 1017,3 hPa 0,0 l/m N 0,00 h 0 W/m 1,5 km/h (1 Bft)
04.08.2013 03:00 17,4 C 87 % 1016,6 hPa 0,0 l/m N 0,00 h 0 W/m 1,9 km/h (1 Bft)
04.08.2013 04:00 16,6 C 88 % 1016,6 hPa 0,0 l/m N 0,00 h 0 W/m 0,7 km/h (0 Bft)
04.08.2013 05:00 15,9 C 90 % 1016,8 hPa 0,0 l/m N 0,00 h 0 W/m 0,3 km/h (0 Bft)
04.08.2013 06:00 15,9 C 92 % 1017,0 hPa 0,0 l/m N 0,00 h 22 W/m 0,0 km/h (0 Bft)
04.08.2013 07:00 17,8 C 89 % 1017,3 hPa 0,0 l/m NO 0,17 h 103 W/m 2,1 km/h (1 Bft)
04.08.2013 08:00 19,5 C 84 % 1017,6 hPa 0,0 l/m NO 0,92 h 259 W/m 2,9 km/h (1 Bft)
04.08.2013 09:00 21,5 C 77 % 1017,5 hPa 0,0 l/m O-NO 0,75 h 352 W/m 4,4 km/h (1 Bft)
04.08.2013 10:00 22,3 C 75 % 1017,6 hPa 0,0 l/m O-NO 0,75 h 463 W/m 4,4 km/h (1 Bft)
04.08.2013 11:00 23,7 C 69 % 1017,8 hPa 0,0 l/m NO 0,50 h 403 W/m 5,5 km/h (1 Bft)
04.08.2013 12:00 22,3 C 71 % 1018,8 hPa 24,4 l/m N-NW 0,00 h 109 W/m 25,5 km/h (4 Bft)
04.08.2013 13:00 15,1 C 94 % 1018,4 hPa 0,6 l/m NW 0,00 h 48 W/m 26,1 km/h (4 Bft)
04.08.2013 14:00 18,4 C 89 % 1018,3 hPa 0,0 l/m S-SW 0,83 h 710 W/m 11,1 km/h (2 Bft)
04.08.2013 15:00 21,7 C 76 % 1018,2 hPa 0,2 l/m SW 0,67 h 629 W/m 13,2 km/h (3 Bft)
04.08.2013 16:00 23,5 C 67 % 1018,3 hPa 0,0 l/m SW 0,83 h 647 W/m 10,4 km/h (2 Bft)
04.08.2013 17:00 24,8 C 63 % 1017,8 hPa 0,0 l/m SW 1,00 h 535 W/m 9,0 km/h (2 Bft)
04.08.2013 18:00 25,0 C 60 % 1017,7 hPa 0,0 l/m W-NW 1,00 h 356 W/m 5,6 km/h (1 Bft)
04.08.2013 19:00 23,9 C 66 % 1017,5 hPa 0,0 l/m N 0,67 h 153 W/m 2,0 km/h (1 Bft)
04.08.2013 20:00 21,2 C 80 % 1017,7 hPa 0,0 l/m N 0,08 h 15 W/m 0,7 km/h (0 Bft)
04.08.2013 21:00 19,2 C 87 % 1018,2 hPa 0,0 l/m N 0,00 h 0 W/m 0,5 km/h (0 Bft)
04.08.2013 22:00 18,3 C 90 % 1018,7 hPa 0,0 l/m N 0,00 h 0 W/m 0,7 km/h (0 Bft)
04.08.2013 23:00 17,4 C 93 % 1019,0 hPa 0,0 l/m N 0,00 h 0 W/m 0,1 km/h (0 Bft)
Min-Datum _ 30.07.13 01.08.13 03.08.13 - - - - 29.07.13
_ Min-Zeit 00:30 16:55 03:55 - - - - 00:00
Minimum _ 12,9 C 25 % 1011,2 hPa - - - - 0,0 km/h (0 Bft)
Max-Datum _ 02.08.13 29.07.13 04.08.13 04.08.13 - 30.07.13 31.07.13 04.08.13
_ Max-Zeit 16:05 23:25 12:45 12:50 - 07:45 12:35 12:40
Maximum _ 34,2 C 98 % 1021,8 hPa 24,4 l/m - 0,08 h 1067 W/m 78,9 km/h
N-NW (9 Bft)
Durchschnitt _ 20,5 C 74 % 1016,1 hPa #35,8 l/m SW #55:00 h 357 W/m 7,5 km/h (2 Bft)